createdAt,value
2018-08-06T00:00:40.327Z,25.38
2018-08-06T00:03:09.471Z,25.42
2018-08-06T00:05:38.384Z,25.52
2018-08-06T00:08:07.769Z,25.48
2018-08-06T00:10:36.655Z,25.49
2018-08-06T00:13:05.673Z,25.68
2018-08-06T00:15:34.615Z,25.60
2018-08-06T00:18:03.422Z,25.54
2018-08-06T00:20:32.254Z,25.30
2018-08-06T00:23:01.281Z,25.18
2018-08-06T00:25:30.232Z,25.01
2018-08-06T00:27:59.063Z,24.90
2018-08-06T00:30:28.000Z,24.75
2018-08-06T00:32:56.898Z,24.96
2018-08-06T00:35:25.817Z,24.85
2018-08-06T00:37:54.716Z,24.74
2018-08-06T00:40:23.619Z,24.82
2018-08-06T00:42:52.561Z,24.69
2018-08-06T00:45:22.140Z,24.72
2018-08-06T00:47:51.224Z,24.65
2018-08-06T00:50:20.085Z,24.65
2018-08-06T00:52:49.143Z,24.79
2018-08-06T00:55:19.217Z,24.94
2018-08-06T00:57:48.057Z,25.03
2018-08-06T01:00:18.075Z,24.89
2018-08-06T01:02:46.982Z,25.02
2018-08-06T01:05:16.432Z,25.04
2018-08-06T01:07:45.677Z,24.93
2018-08-06T01:10:15.860Z,24.56
2018-08-06T01:12:44.762Z,24.41
2018-08-06T01:15:15.827Z,24.27
2018-08-06T01:17:44.738Z,23.99
2018-08-06T01:20:14.251Z,23.92
2018-08-06T01:22:43.987Z,23.83
2018-08-06T01:25:13.583Z,23.83
2018-08-06T01:27:42.536Z,23.91
2018-08-06T01:30:13.167Z,24.00
2018-08-06T01:32:42.109Z,24.11
2018-08-06T01:35:11.708Z,24.05
2018-08-06T01:37:40.716Z,23.96
2018-08-06T01:40:13.210Z,23.83
2018-08-06T01:42:42.504Z,23.85
2018-08-06T01:45:13.133Z,24.15
2018-08-06T01:47:42.025Z,24.26
2018-08-06T01:50:11.965Z,24.42
2018-08-06T01:52:41.354Z,24.35
2018-08-06T01:55:10.241Z,24.38
2018-08-06T01:57:39.128Z,24.30
2018-08-06T02:00:11.031Z,24.28
2018-08-06T02:02:39.886Z,24.25
2018-08-06T02:05:09.331Z,25.00
2018-08-06T02:07:38.608Z,24.62
2018-08-06T02:10:10.525Z,24.06
2018-08-06T02:12:39.889Z,23.65
2018-08-06T02:15:10.136Z,23.66
2018-08-06T02:17:39.415Z,23.59
2018-08-06T02:20:09.775Z,23.60
2018-08-06T02:22:38.712Z,23.72
2018-08-06T02:25:09.013Z,23.68
2018-08-06T02:27:37.896Z,23.65
2018-08-06T02:30:09.351Z,23.77
2018-08-06T02:32:38.352Z,23.77
2018-08-06T02:35:08.393Z,23.75
2018-08-06T02:37:37.289Z,23.58
2018-08-06T02:40:07.739Z,23.56
2018-08-06T02:42:36.635Z,23.57
2018-08-06T02:45:06.853Z,23.40
2018-08-06T02:47:35.694Z,23.32
2018-08-06T02:50:04.905Z,23.44
2018-08-06T02:52:33.838Z,23.58
2018-08-06T02:55:02.898Z,23.67
2018-08-06T02:57:31.707Z,23.42
2018-08-06T03:00:00.641Z,23.27
2018-08-06T03:02:29.585Z,23.46
2018-08-06T03:04:58.755Z,23.36
2018-08-06T03:07:27.624Z,23.15
2018-08-06T03:09:56.534Z,23.30
2018-08-06T03:12:25.354Z,23.22
2018-08-06T03:14:54.275Z,23.26
2018-08-06T03:17:23.211Z,23.39
2018-08-06T03:19:52.024Z,23.24
2018-08-06T03:22:20.872Z,23.15
2018-08-06T03:24:49.752Z,23.24
2018-08-06T03:27:18.688Z,23.30
2018-08-06T03:29:47.580Z,23.18
2018-08-06T03:32:16.559Z,23.11
2018-08-06T03:34:45.475Z,23.07
2018-08-06T03:37:14.315Z,23.06
2018-08-06T03:39:43.219Z,22.99
2018-08-06T03:42:12.070Z,23.02
2018-08-06T03:44:40.888Z,23.01
2018-08-06T03:47:09.782Z,22.98
2018-08-06T03:49:38.616Z,23.01
2018-08-06T03:52:07.960Z,23.10
2018-08-06T03:54:36.843Z,23.26
2018-08-06T03:57:05.628Z,23.29
2018-08-06T03:59:34.459Z,23.20
2018-08-06T04:02:03.339Z,23.24
2018-08-06T04:04:32.175Z,23.16
2018-08-06T04:07:00.998Z,23.24
2018-08-06T04:09:29.827Z,23.30
2018-08-06T04:11:58.730Z,23.40
2018-08-06T04:14:27.725Z,23.44
2018-08-06T04:16:56.704Z,23.37
2018-08-06T04:19:25.499Z,23.33
2018-08-06T04:21:54.389Z,23.64
2018-08-06T04:24:23.223Z,23.40
2018-08-06T04:26:52.068Z,23.33
2018-08-06T04:29:20.947Z,23.39
2018-08-06T04:31:49.863Z,23.37
2018-08-06T04:34:18.718Z,23.36
2018-08-06T04:36:47.564Z,23.31
2018-08-06T04:39:16.467Z,23.45
2018-08-06T04:41:45.387Z,23.56
2018-08-06T04:44:14.189Z,23.27
2018-08-06T04:46:43.098Z,23.45
2018-08-06T04:49:11.895Z,23.76
2018-08-06T04:51:40.780Z,23.45
2018-08-06T04:54:09.703Z,23.68
2018-08-06T04:56:38.552Z,23.51
2018-08-06T04:59:07.356Z,23.42
2018-08-06T05:01:36.298Z,23.30
2018-08-06T05:04:05.168Z,23.26
2018-08-06T05:06:34.087Z,23.22
2018-08-06T05:09:03.118Z,23.49
2018-08-06T05:11:31.947Z,23.63
2018-08-06T05:14:00.741Z,23.65
2018-08-06T05:16:29.592Z,23.82
2018-08-06T05:18:58.433Z,23.76
2018-08-06T05:21:27.232Z,24.06
2018-08-06T05:23:57.623Z,24.05
2018-08-06T05:26:27.711Z,24.21
2018-08-06T05:28:56.591Z,24.21
2018-08-06T05:31:26.575Z,23.94
2018-08-06T05:33:56.443Z,23.84
2018-08-06T05:36:25.481Z,23.64
2018-08-06T05:38:55.693Z,23.71
2018-08-06T05:41:26.393Z,24.24
2018-08-06T05:43:56.262Z,24.08
2018-08-06T05:46:26.143Z,24.18
2018-08-06T05:48:55.214Z,24.26
2018-08-06T05:51:24.211Z,24.31
2018-08-06T05:53:53.101Z,24.53
2018-08-06T05:56:22.020Z,24.78
2018-08-06T05:58:51.007Z,24.78
2018-08-06T06:01:19.981Z,24.81
2018-08-06T06:03:48.853Z,24.89
2018-08-06T06:06:17.900Z,24.94
2018-08-06T06:08:46.837Z,24.91
2018-08-06T06:11:15.685Z,24.92
2018-08-06T06:13:44.626Z,24.93
2018-08-06T06:16:13.652Z,25.22
2018-08-06T06:18:42.636Z,25.65
2018-08-06T06:21:11.552Z,25.90
2018-08-06T06:23:40.565Z,26.19
2018-08-06T06:26:09.515Z,26.41
2018-08-06T06:28:38.535Z,26.31
2018-08-06T06:31:07.406Z,26.07
2018-08-06T06:33:36.295Z,26.37
2018-08-06T06:36:05.481Z,26.43
2018-08-06T06:38:34.317Z,26.73
2018-08-06T06:41:03.241Z,26.21
2018-08-06T06:43:32.257Z,26.60
2018-08-06T06:46:01.214Z,27.07
2018-08-06T06:48:30.117Z,26.73
2018-08-06T06:50:59.099Z,27.31
2018-08-06T06:53:28.073Z,27.42
2018-08-06T06:55:57.143Z,27.15
2018-08-06T06:58:26.299Z,27.47
2018-08-06T07:00:55.214Z,27.75
2018-08-06T07:03:24.242Z,28.03
2018-08-06T07:05:53.321Z,28.18
2018-08-06T07:08:22.223Z,28.32
2018-08-06T07:10:51.143Z,28.01
2018-08-06T07:13:21.065Z,27.79
2018-08-06T07:15:49.984Z,27.82
2018-08-06T07:18:18.962Z,28.12
2018-08-06T07:20:48.090Z,28.12
2018-08-06T07:23:17.192Z,28.27
2018-08-06T07:25:46.248Z,28.53
2018-08-06T07:28:15.285Z,28.37
2018-08-06T07:30:44.310Z,28.61
2018-08-06T07:33:13.160Z,29.02
2018-08-06T07:35:42.019Z,29.13
2018-08-06T07:38:11.093Z,29.04
2018-08-06T07:40:40.020Z,29.42
2018-08-06T07:43:08.983Z,29.01
2018-08-06T07:45:37.898Z,29.37
2018-08-06T07:48:06.878Z,29.44
2018-08-06T07:50:35.800Z,29.54
2018-08-06T07:53:04.866Z,29.74
2018-08-06T07:55:33.819Z,29.48
2018-08-06T07:58:02.746Z,29.38
2018-08-06T08:00:31.686Z,29.50
2018-08-06T08:03:00.655Z,29.97
2018-08-06T08:05:29.656Z,29.65
2018-08-06T08:07:58.598Z,29.72
2018-08-06T08:10:27.602Z,29.94
2018-08-06T08:12:56.496Z,30.14
2018-08-06T08:15:26.828Z,29.83
2018-08-06T08:17:57.258Z,29.85
2018-08-06T08:20:26.626Z,30.28
2018-08-06T08:22:55.599Z,30.38
2018-08-06T08:25:24.603Z,30.28
2018-08-06T08:27:53.480Z,30.26
2018-08-06T08:30:22.568Z,30.38
2018-08-06T08:32:51.509Z,30.62
2018-08-06T08:35:20.623Z,30.68
2018-08-06T08:37:49.670Z,30.96
2018-08-06T08:40:19.860Z,30.88
2018-08-06T08:42:48.864Z,31.00
2018-08-06T08:45:18.811Z,30.55
2018-08-06T08:47:47.980Z,30.46
2018-08-06T08:50:19.546Z,30.56
2018-08-06T08:52:48.564Z,31.71
2018-08-06T08:55:18.906Z,31.52
2018-08-06T08:57:47.998Z,31.63
2018-08-06T09:00:18.107Z,32.18
2018-08-06T09:02:48.253Z,32.16
2018-08-06T09:05:17.700Z,32.03
2018-08-06T09:07:47.038Z,32.11
2018-08-06T09:10:17.613Z,32.87
2018-08-06T09:12:46.863Z,32.40
2018-08-06T09:15:19.284Z,32.44
2018-08-06T09:17:48.196Z,32.43
2018-08-06T09:20:17.145Z,32.79
2018-08-06T09:22:46.704Z,32.81
2018-08-06T09:25:16.034Z,32.56
2018-08-06T09:27:46.263Z,32.58
2018-08-06T09:30:18.275Z,32.80
2018-08-06T09:32:48.516Z,32.56
2018-08-06T09:35:18.281Z,32.63
2018-08-06T09:37:47.427Z,32.57
2018-08-06T09:40:17.802Z,32.66
2018-08-06T09:42:47.371Z,32.48
2018-08-06T09:45:17.497Z,32.41
2018-08-06T09:47:47.771Z,33.09
2018-08-06T09:50:17.684Z,32.97
2018-08-06T09:52:47.796Z,33.55
2018-08-06T09:55:20.587Z,33.16
2018-08-06T09:57:50.273Z,33.23
2018-08-06T10:00:25.152Z,33.17
2018-08-06T10:02:55.180Z,32.79
2018-08-06T10:05:25.078Z,32.80
2018-08-06T10:07:54.350Z,33.05
2018-08-06T10:10:23.483Z,33.18
2018-08-06T10:12:52.661Z,33.07
2018-08-06T10:15:23.095Z,32.93
2018-08-06T10:17:54.252Z,32.84
2018-08-06T10:20:24.470Z,32.80
2018-08-06T10:22:53.445Z,32.83
2018-08-06T10:25:22.464Z,32.82
2018-08-06T10:27:51.402Z,32.92
2018-08-06T10:30:21.432Z,33.19
2018-08-06T10:32:50.535Z,33.09
2018-08-06T10:35:20.131Z,33.04
2018-08-06T10:37:49.209Z,32.88
2018-08-06T10:40:22.474Z,32.83
2018-08-06T10:42:51.442Z,32.72
2018-08-06T10:45:21.544Z,32.72
2018-08-06T10:47:50.968Z,32.82
2018-08-06T10:50:20.006Z,32.87
2018-08-06T10:52:48.904Z,32.89
2018-08-06T10:55:17.960Z,32.77
2018-08-06T10:57:47.254Z,32.57
2018-08-06T11:00:20.292Z,32.50
2018-08-06T11:02:49.472Z,32.61
2018-08-06T11:05:18.958Z,32.84
2018-08-06T11:07:48.858Z,33.15
2018-08-06T11:10:19.214Z,33.27
2018-08-06T11:12:48.211Z,33.18
2018-08-06T11:15:22.531Z,33.21
2018-08-06T11:17:51.554Z,33.25
2018-08-06T11:20:21.163Z,33.23
2018-08-06T11:22:50.103Z,33.16
2018-08-06T11:25:20.680Z,33.44
2018-08-06T11:27:49.792Z,33.47
2018-08-06T11:30:20.375Z,33.92
2018-08-06T11:32:49.903Z,33.56
2018-08-06T11:35:18.928Z,34.23
2018-08-06T11:37:47.962Z,34.35
2018-08-06T11:40:17.783Z,34.20
2018-08-06T11:42:47.260Z,34.60
2018-08-06T11:45:17.581Z,34.82
2018-08-06T11:47:46.485Z,34.60
2018-08-06T11:50:15.387Z,34.27
2018-08-06T11:52:44.309Z,34.06
2018-08-06T11:55:13.191Z,33.76
2018-08-06T11:57:42.105Z,34.80
2018-08-06T12:00:19.913Z,34.78
2018-08-06T12:02:48.817Z,34.62
2018-08-06T12:05:17.794Z,35.82
2018-08-06T12:07:46.740Z,35.89
2018-08-06T12:10:16.928Z,35.43
2018-08-06T12:12:46.635Z,35.84
2018-08-06T12:15:15.655Z,36.16
2018-08-06T12:17:44.840Z,36.24
2018-08-06T12:20:15.522Z,36.38
2018-08-06T12:22:45.790Z,36.72
2018-08-06T12:25:15.508Z,36.43
2018-08-06T12:27:44.977Z,35.96
2018-08-06T12:30:15.785Z,36.02
2018-08-06T12:32:45.392Z,35.69
2018-08-06T12:35:14.603Z,35.81
2018-08-06T12:37:43.727Z,36.65
2018-08-06T12:40:14.761Z,36.67
2018-08-06T12:42:43.720Z,37.06
2018-08-06T12:45:13.556Z,37.34
2018-08-06T12:47:42.828Z,36.95
2018-08-06T12:50:12.853Z,37.05
2018-08-06T12:52:42.402Z,36.51
2018-08-06T12:55:12.696Z,36.40
2018-08-06T12:57:42.202Z,36.25
2018-08-06T13:00:24.244Z,36.47
2018-08-06T13:02:53.790Z,35.25
2018-08-06T13:05:23.394Z,36.06
2018-08-06T13:07:52.387Z,35.50
2018-08-06T13:10:21.268Z,35.39
2018-08-06T13:12:50.188Z,35.12
2018-08-06T13:15:19.160Z,35.30
2018-08-06T13:17:48.039Z,35.23
2018-08-06T13:20:16.887Z,35.64
2018-08-06T13:22:45.866Z,35.35
2018-08-06T13:25:14.685Z,35.26
2018-08-06T13:27:43.537Z,35.40
2018-08-06T13:30:14.616Z,34.75
2018-08-06T13:32:44.299Z,34.76
2018-08-06T13:35:14.139Z,35.05
2018-08-06T13:37:43.004Z,35.19
2018-08-06T13:40:12.168Z,36.08
2018-08-06T13:42:41.118Z,36.51
2018-08-06T13:45:11.971Z,36.16
2018-08-06T13:47:40.851Z,35.73
2018-08-06T13:50:10.480Z,35.49
2018-08-06T13:52:39.382Z,35.55
2018-08-06T13:55:09.806Z,35.47
2018-08-06T13:57:38.919Z,35.22
2018-08-06T14:00:17.173Z,35.20
2018-08-06T14:02:46.361Z,35.06
2018-08-06T14:05:16.096Z,35.34
2018-08-06T14:07:46.851Z,35.25
2018-08-06T14:10:16.154Z,35.11
2018-08-06T14:12:45.001Z,35.32
2018-08-06T14:15:14.168Z,35.44
2018-08-06T14:17:43.685Z,35.06
2018-08-06T14:20:14.890Z,35.01
2018-08-06T14:22:43.735Z,34.99
2018-08-06T14:25:13.744Z,34.76
2018-08-06T14:27:42.771Z,34.86
2018-08-06T14:30:13.837Z,34.99
2018-08-06T14:32:43.254Z,35.09
2018-08-06T14:35:12.453Z,34.84
2018-08-06T14:37:41.391Z,34.84
2018-08-06T14:40:13.188Z,34.75
2018-08-06T14:42:42.116Z,35.15
2018-08-06T14:45:11.325Z,34.91
2018-08-06T14:47:40.251Z,34.99
2018-08-06T14:50:10.533Z,34.83
2018-08-06T14:52:39.455Z,34.84
2018-08-06T14:55:08.433Z,34.75
2018-08-06T14:57:38.531Z,34.74
2018-08-06T15:00:17.290Z,34.46
2018-08-06T15:02:46.676Z,34.69
2018-08-06T15:05:15.588Z,34.43
2018-08-06T15:07:44.950Z,34.21
2018-08-06T15:10:14.561Z,34.16
2018-08-06T15:12:43.633Z,34.37
2018-08-06T15:15:14.298Z,34.52
2018-08-06T15:17:43.895Z,34.56
2018-08-06T15:20:14.488Z,34.06
2018-08-06T15:22:43.443Z,33.85
2018-08-06T15:25:19.307Z,34.14
2018-08-06T15:27:48.275Z,34.35
2018-08-06T15:30:17.163Z,34.52
2018-08-06T15:32:46.203Z,34.40
2018-08-06T15:35:15.275Z,34.37
2018-08-06T15:37:44.955Z,34.38
2018-08-06T15:40:17.910Z,34.49
2018-08-06T15:42:46.863Z,34.48
2018-08-06T15:45:15.958Z,34.46
2018-08-06T15:47:45.797Z,34.47
2018-08-06T15:50:16.849Z,34.59
2018-08-06T15:52:45.809Z,34.53
2018-08-06T15:55:14.882Z,34.56
2018-08-06T15:57:43.890Z,34.53
2018-08-06T16:00:15.257Z,34.53
2018-08-06T16:02:44.532Z,34.54
2018-08-06T16:05:13.669Z,34.52
2018-08-06T16:07:42.722Z,34.56
2018-08-06T16:10:12.451Z,34.44
2018-08-06T16:12:41.690Z,34.25
2018-08-06T16:15:12.420Z,34.15
2018-08-06T16:17:42.095Z,34.07
2018-08-06T16:20:18.403Z,34.04
2018-08-06T16:22:47.351Z,33.98
2018-08-06T16:25:16.396Z,33.92
2018-08-06T16:27:45.359Z,33.83
2018-08-06T16:30:16.674Z,33.74
2018-08-06T16:32:46.553Z,33.68
2018-08-06T16:35:16.345Z,33.56
2018-08-06T16:37:45.308Z,33.39
2018-08-06T16:40:14.669Z,33.15
2018-08-06T16:42:43.816Z,33.00
2018-08-06T16:45:12.715Z,32.87
2018-08-06T16:47:41.691Z,32.63
2018-08-06T16:50:12.596Z,32.57
2018-08-06T16:52:41.716Z,32.33
2018-08-06T16:55:11.821Z,32.29
2018-08-06T16:57:41.002Z,32.23
2018-08-06T17:00:17.407Z,32.21
2018-08-06T17:02:46.469Z,32.35
2018-08-06T17:05:15.502Z,32.13
2018-08-06T17:07:46.702Z,31.88
2018-08-06T17:10:17.947Z,31.89
2018-08-06T17:12:48.096Z,31.89
2018-08-06T17:15:18.287Z,31.68
2018-08-06T17:17:47.871Z,31.32
2018-08-06T17:20:18.450Z,31.40
2018-08-06T17:22:48.453Z,31.03
2018-08-06T17:25:17.524Z,31.12
2018-08-06T17:27:46.435Z,31.06
2018-08-06T17:30:16.145Z,31.00
2018-08-06T17:32:45.113Z,30.73
2018-08-06T17:35:14.586Z,30.76
2018-08-06T17:37:43.493Z,30.62
2018-08-06T17:40:17.319Z,30.85
2018-08-06T17:42:46.159Z,30.67
2018-08-06T17:45:17.013Z,30.53
2018-08-06T17:47:45.984Z,30.46
2018-08-06T17:50:19.833Z,30.55
2018-08-06T17:52:49.878Z,30.43
2018-08-06T17:55:19.765Z,30.27
2018-08-06T17:57:48.970Z,30.16
2018-08-06T18:00:18.474Z,30.05
2018-08-06T18:02:47.539Z,30.07
2018-08-06T18:05:17.172Z,30.08
2018-08-06T18:07:46.088Z,29.92
2018-08-06T18:10:16.303Z,29.99
2018-08-06T18:12:45.924Z,29.99
2018-08-06T18:15:14.972Z,30.04
2018-08-06T18:17:43.851Z,30.28
2018-08-06T18:20:14.919Z,29.62
2018-08-06T18:22:43.872Z,29.29
2018-08-06T18:25:15.518Z,29.39
2018-08-06T18:27:45.542Z,29.19
2018-08-06T18:30:16.247Z,29.38
2018-08-06T18:32:45.222Z,29.31
2018-08-06T18:35:15.699Z,29.12
2018-08-06T18:37:44.616Z,29.10
2018-08-06T18:40:14.344Z,29.17
2018-08-06T18:42:43.326Z,29.36
2018-08-06T18:45:14.569Z,29.41
2018-08-06T18:47:45.933Z,29.44
2018-08-06T18:50:15.690Z,29.60
2018-08-06T18:52:45.515Z,29.54
2018-08-06T18:55:15.373Z,29.49
2018-08-06T18:57:44.709Z,29.54
2018-08-06T19:00:19.755Z,29.73
2018-08-06T19:02:48.834Z,29.82
2018-08-06T19:05:17.823Z,29.84
2018-08-06T19:10:25.559Z,29.87
2018-08-06T19:12:59.709Z,29.75
2018-08-06T19:15:28.686Z,29.83
2018-08-06T19:18:02.680Z,29.78
2018-08-06T19:20:31.692Z,29.86
2018-08-06T19:23:00.674Z,29.94
2018-08-06T19:25:31.001Z,29.96
2018-08-06T19:27:59.966Z,30.08
2018-08-06T19:30:33.901Z,30.18
2018-08-06T19:33:03.108Z,30.00
2018-08-06T19:35:32.098Z,30.13
2018-08-06T19:38:00.989Z,30.02
2018-08-06T19:40:30.045Z,30.00
2018-08-06T19:43:04.016Z,30.06
2018-08-06T19:45:33.079Z,30.02
2018-08-06T19:48:01.905Z,30.03
2018-08-06T19:50:36.008Z,29.94
2018-08-06T19:53:05.130Z,29.90
2018-08-06T19:55:39.312Z,30.02
2018-08-06T19:58:08.245Z,29.92
2018-08-06T20:00:37.195Z,29.85
2018-08-06T20:03:06.344Z,29.85
2018-08-06T20:05:35.341Z,29.84
2018-08-06T20:08:04.370Z,29.80
2018-08-06T20:10:33.441Z,29.81
2018-08-06T20:13:02.431Z,29.79
2018-08-06T20:15:31.329Z,29.84
2018-08-06T20:18:00.414Z,29.85
2018-08-06T20:20:29.333Z,29.92
2018-08-06T20:22:58.226Z,29.75
2018-08-06T20:25:27.154Z,29.85
2018-08-06T20:27:56.177Z,29.79
2018-08-06T20:30:25.040Z,29.95
2018-08-06T20:32:54.612Z,29.78
2018-08-06T20:35:23.657Z,29.88
2018-08-06T20:37:52.676Z,30.09
2018-08-06T20:40:21.623Z,29.49
2018-08-06T20:42:50.462Z,29.50
2018-08-06T20:45:20.626Z,29.45
2018-08-06T20:47:49.714Z,29.49
2018-08-06T20:50:20.416Z,29.24
2018-08-06T20:52:50.207Z,29.19
2018-08-06T20:55:19.170Z,29.01
2018-08-06T20:57:48.456Z,29.20
2018-08-06T21:00:19.670Z,29.02
2018-08-06T21:02:49.372Z,29.25
2018-08-06T21:05:18.374Z,29.02
2018-08-06T21:07:47.451Z,28.48
2018-08-06T21:10:17.305Z,28.07
2018-08-06T21:12:46.604Z,28.24
2018-08-06T21:15:16.065Z,28.70
2018-08-06T21:17:45.188Z,27.98
2018-08-06T21:20:15.994Z,27.25
2018-08-06T21:22:46.907Z,27.49
2018-08-06T21:25:16.171Z,27.36
2018-08-06T21:27:46.156Z,27.19
2018-08-06T21:30:17.155Z,27.10
2018-08-06T21:32:53.228Z,26.93
2018-08-06T21:35:23.269Z,27.05
2018-08-06T21:37:53.083Z,26.88
2018-08-06T21:40:22.916Z,26.69
2018-08-06T21:42:52.198Z,26.63
2018-08-06T21:45:21.303Z,26.61
2018-08-06T21:47:50.533Z,26.47
2018-08-06T21:50:19.421Z,26.50
2018-08-06T21:52:48.241Z,26.41
2018-08-06T21:55:17.215Z,26.49
2018-08-06T21:57:46.112Z,26.41
2018-08-06T22:00:35.646Z,26.49
2018-08-06T22:03:06.138Z,26.40
2018-08-06T22:05:35.043Z,26.43
2018-08-06T22:08:04.086Z,26.31
2018-08-06T22:10:33.040Z,26.17
2018-08-06T22:13:01.883Z,26.20
2018-08-06T22:15:30.831Z,26.12
2018-08-06T22:17:59.734Z,25.97
2018-08-06T22:20:28.678Z,25.89
2018-08-06T22:22:57.628Z,25.74
2018-08-06T22:25:26.608Z,25.74
2018-08-06T22:27:55.533Z,25.48
2018-08-06T22:30:24.500Z,25.53
2018-08-06T22:32:53.385Z,25.53
2018-08-06T22:35:22.246Z,25.61
2018-08-06T22:37:51.133Z,25.64
2018-08-06T22:40:20.012Z,25.82
2018-08-06T22:42:48.903Z,25.83
2018-08-06T22:45:17.868Z,25.99
2018-08-06T22:47:46.788Z,26.09
2018-08-06T22:50:15.633Z,26.29
2018-08-06T22:52:44.592Z,26.10
2018-08-06T22:55:13.765Z,26.22
2018-08-06T22:57:43.188Z,26.00
2018-08-06T23:00:14.316Z,25.83
2018-08-06T23:02:43.642Z,25.75
2018-08-06T23:05:13.769Z,26.07
2018-08-06T23:07:42.652Z,25.35
2018-08-06T23:10:14.539Z,24.89
2018-08-06T23:12:43.542Z,24.96
2018-08-06T23:15:14.984Z,24.82
2018-08-06T23:17:44.520Z,24.82
2018-08-06T23:20:13.485Z,24.85
2018-08-06T23:22:43.043Z,24.86
2018-08-06T23:25:12.026Z,24.71
2018-08-06T23:27:41.395Z,24.79
2018-08-06T23:30:12.927Z,24.88
2018-08-06T23:32:42.198Z,24.99
2018-08-06T23:35:12.399Z,24.98
2018-08-06T23:37:42.500Z,25.02
2018-08-06T23:40:12.354Z,24.96
2018-08-06T23:42:41.815Z,25.13
2018-08-06T23:45:11.860Z,25.16
2018-08-06T23:47:41.206Z,25.28
2018-08-06T23:50:11.868Z,25.31
2018-08-06T23:52:42.203Z,25.15
2018-08-06T23:55:12.483Z,25.14
2018-08-06T23:57:41.420Z,25.14
